createdAt,value
2018-03-30T00:00:45.400Z,19.91
2018-03-30T00:01:44.958Z,20.06
2018-03-30T00:02:44.919Z,19.93
2018-03-30T00:03:44.907Z,19.9
2018-03-30T00:04:44.946Z,20.09
2018-03-30T00:05:44.922Z,19.92
2018-03-30T00:06:44.936Z,19.87
2018-03-30T00:07:44.932Z,20.01
2018-03-30T00:08:44.982Z,19.88
2018-03-30T00:09:45.079Z,19.84
2018-03-30T00:10:44.975Z,20.03
2018-03-30T00:11:44.932Z,19.9
2018-03-30T00:12:44.901Z,19.87
2018-03-30T00:13:44.926Z,20.03
2018-03-30T00:14:45.050Z,19.89
2018-03-30T00:15:45.012Z,19.84
2018-03-30T00:16:44.961Z,20
2018-03-30T00:17:44.937Z,19.87
2018-03-30T00:18:44.932Z,19.81
2018-03-30T00:19:44.915Z,20
2018-03-30T00:20:44.941Z,19.91
2018-03-30T00:21:44.990Z,19.84
2018-03-30T00:22:44.937Z,20.02
2018-03-30T00:23:44.938Z,19.86
2018-03-30T00:24:44.950Z,19.79
2018-03-30T00:25:44.953Z,19.99
2018-03-30T00:26:44.900Z,19.83
2018-03-30T00:27:44.966Z,19.81
2018-03-30T00:28:44.907Z,19.94
2018-03-30T00:29:44.918Z,19.81
2018-03-30T00:30:45.017Z,19.81
2018-03-30T00:31:44.929Z,19.96
2018-03-30T00:32:44.910Z,19.83
2018-03-30T00:33:44.909Z,19.81
2018-03-30T00:34:45.011Z,19.93
2018-03-30T00:35:44.938Z,19.78
2018-03-30T00:36:44.927Z,19.78
2018-03-30T00:37:44.905Z,19.94
2018-03-30T00:38:44.907Z,19.79
2018-03-30T00:39:44.937Z,19.77
2018-03-30T00:40:44.936Z,19.91
2018-03-30T00:41:44.929Z,19.78
2018-03-30T00:42:44.962Z,19.77
2018-03-30T00:43:44.923Z,19.94
2018-03-30T00:44:44.916Z,19.8
2018-03-30T00:45:44.979Z,19.75
2018-03-30T00:46:44.935Z,19.91
2018-03-30T00:47:44.915Z,19.78
2018-03-30T00:48:44.906Z,19.73
2018-03-30T00:49:44.930Z,19.86
2018-03-30T00:50:44.989Z,19.74
2018-03-30T00:51:44.920Z,19.71
2018-03-30T00:52:44.916Z,19.88
2018-03-30T00:53:44.906Z,19.75
2018-03-30T00:54:44.946Z,19.7
2018-03-30T00:55:45.178Z,19.88
2018-03-30T00:56:44.913Z,19.71
2018-03-30T00:57:44.916Z,19.66
2018-03-30T00:58:44.957Z,19.87
2018-03-30T00:59:44.914Z,19.74
2018-03-30T01:00:44.919Z,19.7
2018-03-30T01:01:44.922Z,19.84
2018-03-30T01:02:44.905Z,19.71
2018-03-30T01:03:44.888Z,19.68
2018-03-30T01:04:44.926Z,19.85
2018-03-30T01:05:44.944Z,19.7
2018-03-30T01:06:44.895Z,19.68
2018-03-30T01:07:44.985Z,19.86
2018-03-30T01:08:44.919Z,19.69
2018-03-30T01:09:44.901Z,19.69
2018-03-30T01:10:44.914Z,19.79
2018-03-30T01:11:44.887Z,19.68
2018-03-30T01:12:44.910Z,19.67
2018-03-30T01:13:44.922Z,19.86
2018-03-30T01:14:44.923Z,19.69
2018-03-30T01:15:44.887Z,19.63
2018-03-30T01:16:44.917Z,19.82
2018-03-30T01:17:44.944Z,19.64
2018-03-30T01:18:44.911Z,19.63
2018-03-30T01:19:44.898Z,19.82
2018-03-30T01:20:44.886Z,19.68
2018-03-30T01:21:44.908Z,19.66
2018-03-30T01:22:44.927Z,19.8
2018-03-30T01:23:44.927Z,19.64
2018-03-30T01:24:44.919Z,19.62
2018-03-30T01:25:44.890Z,19.79
2018-03-30T01:26:44.909Z,19.65
2018-03-30T01:27:44.956Z,19.64
2018-03-30T01:28:44.959Z,19.81
2018-03-30T01:29:44.917Z,19.65
2018-03-30T01:30:44.945Z,19.62
2018-03-30T01:31:44.907Z,19.77
2018-03-30T01:32:44.925Z,19.63
2018-03-30T01:33:44.908Z,19.61
2018-03-30T01:34:44.885Z,19.77
2018-03-30T01:35:44.909Z,19.6
2018-03-30T01:36:44.896Z,19.57
2018-03-30T01:37:44.900Z,19.75
2018-03-30T01:38:44.892Z,19.61
2018-03-30T01:39:44.900Z,19.58
2018-03-30T01:40:44.900Z,19.76
2018-03-30T01:41:44.900Z,19.63
2018-03-30T01:42:44.900Z,19.61
2018-03-30T01:43:44.939Z,19.75
2018-03-30T01:44:44.883Z,19.62
2018-03-30T01:45:44.935Z,19.59
2018-03-30T01:46:44.940Z,19.77
2018-03-30T01:47:44.892Z,19.59
2018-03-30T01:48:44.923Z,19.58
2018-03-30T01:49:44.891Z,19.75
2018-03-30T01:50:44.914Z,19.6
2018-03-30T01:51:44.883Z,19.57
2018-03-30T01:52:44.923Z,19.73
2018-03-30T01:53:44.931Z,19.59
2018-03-30T01:54:44.891Z,19.57
2018-03-30T01:55:44.920Z,19.75
2018-03-30T01:56:44.888Z,19.61
2018-03-30T01:57:44.947Z,19.55
2018-03-30T01:58:44.899Z,19.75
2018-03-30T01:59:44.958Z,19.57
2018-03-30T02:00:44.901Z,19.57
2018-03-30T02:01:44.935Z,19.73
2018-03-30T02:02:44.882Z,19.57
2018-03-30T02:03:44.935Z,19.53
2018-03-30T02:04:44.887Z,19.71
2018-03-30T02:05:44.935Z,19.57
2018-03-30T02:06:44.922Z,19.57
2018-03-30T02:07:44.960Z,19.69
2018-03-30T02:08:44.896Z,19.57
2018-03-30T02:09:44.961Z,19.54
2018-03-30T02:10:44.988Z,19.7
2018-03-30T02:11:44.902Z,19.57
2018-03-30T02:12:44.916Z,19.52
2018-03-30T02:13:44.883Z,19.71
2018-03-30T02:14:44.908Z,19.55
2018-03-30T02:15:45.008Z,19.5
2018-03-30T02:16:45.010Z,19.69
2018-03-30T02:17:44.885Z,19.55
2018-03-30T02:18:44.911Z,19.51
2018-03-30T02:19:45.154Z,19.65
2018-03-30T02:20:44.883Z,19.57
2018-03-30T02:21:44.920Z,19.51
2018-03-30T02:22:44.882Z,19.65
2018-03-30T02:23:44.921Z,19.54
2018-03-30T02:24:44.914Z,19.49
2018-03-30T02:25:44.866Z,19.7
2018-03-30T02:26:44.888Z,19.52
2018-03-30T02:27:44.896Z,19.49
2018-03-30T02:28:44.874Z,19.64
2018-03-30T02:29:44.973Z,19.51
2018-03-30T02:30:44.936Z,19.47
2018-03-30T02:31:44.893Z,19.64
2018-03-30T02:32:44.898Z,19.52
2018-03-30T02:33:44.894Z,19.51
2018-03-30T02:34:44.899Z,19.64
2018-03-30T02:35:44.909Z,19.51
2018-03-30T02:36:44.905Z,19.48
2018-03-30T02:37:44.897Z,19.65
2018-03-30T02:38:44.866Z,19.49
2018-03-30T02:39:44.973Z,19.44
2018-03-30T02:40:44.910Z,19.61
2018-03-30T02:41:44.890Z,19.46
2018-03-30T02:42:44.865Z,19.44
2018-03-30T02:43:44.882Z,19.61
2018-03-30T02:44:44.918Z,19.45
2018-03-30T02:45:44.898Z,19.45
2018-03-30T02:46:44.917Z,19.58
2018-03-30T02:47:44.885Z,19.46
2018-03-30T02:48:44.896Z,19.43
2018-03-30T02:49:44.895Z,19.59
2018-03-30T02:50:44.876Z,19.46
2018-03-30T02:51:44.893Z,19.45
2018-03-30T02:52:44.904Z,19.61
2018-03-30T02:53:44.895Z,19.47
2018-03-30T02:54:45.217Z,19.41
2018-03-30T02:55:44.908Z,19.57
2018-03-30T02:56:44.938Z,19.44
2018-03-30T02:57:44.860Z,19.4
2018-03-30T02:58:44.879Z,19.6
2018-03-30T02:59:44.967Z,19.44
2018-03-30T03:00:44.897Z,19.42
2018-03-30T03:01:44.872Z,19.6
2018-03-30T03:02:44.882Z,19.43
2018-03-30T03:03:44.873Z,19.38
2018-03-30T03:04:44.907Z,19.57
2018-03-30T03:05:44.905Z,19.43
2018-03-30T03:06:44.883Z,19.42
2018-03-30T03:07:44.889Z,19.57
2018-03-30T03:08:44.877Z,19.45
2018-03-30T03:09:44.879Z,19.39
2018-03-30T03:10:44.856Z,19.58
2018-03-30T03:11:44.872Z,19.39
2018-03-30T03:12:44.848Z,19.38
2018-03-30T03:13:44.873Z,19.58
2018-03-30T03:14:44.877Z,19.45
2018-03-30T03:15:44.858Z,19.41
2018-03-30T03:16:44.887Z,19.57
2018-03-30T03:17:44.874Z,19.43
2018-03-30T03:18:44.878Z,19.38
2018-03-30T03:19:44.869Z,19.57
2018-03-30T03:20:44.886Z,19.43
2018-03-30T03:21:44.940Z,19.39
2018-03-30T03:22:44.871Z,19.56
2018-03-30T03:23:44.900Z,19.4
2018-03-30T03:24:44.894Z,19.36
2018-03-30T03:25:44.872Z,19.56
2018-03-30T03:26:45.167Z,19.39
2018-03-30T03:27:44.862Z,19.36
2018-03-30T03:28:45.153Z,19.53
2018-03-30T03:29:44.887Z,19.37
2018-03-30T03:30:44.921Z,19.34
2018-03-30T03:31:44.903Z,19.51
2018-03-30T03:32:44.882Z,19.35
2018-03-30T03:33:44.865Z,19.35
2018-03-30T03:34:44.848Z,19.51
2018-03-30T03:35:44.862Z,19.36
2018-03-30T03:36:44.870Z,19.37
2018-03-30T03:37:44.885Z,19.53
2018-03-30T03:38:44.895Z,19.35
2018-03-30T03:39:44.857Z,19.32
2018-03-30T03:40:44.848Z,19.49
2018-03-30T03:41:44.893Z,19.35
2018-03-30T03:42:44.854Z,19.33
2018-03-30T03:43:44.845Z,19.51
2018-03-30T03:44:44.866Z,19.38
2018-03-30T03:45:44.857Z,19.31
2018-03-30T03:46:44.884Z,19.48
2018-03-30T03:47:44.877Z,19.38
2018-03-30T03:48:44.847Z,19.33
2018-03-30T03:49:44.858Z,19.49
2018-03-30T03:50:44.853Z,19.3
2018-03-30T03:51:44.858Z,19.31
2018-03-30T03:52:44.843Z,19.5
2018-03-30T03:53:44.854Z,19.32
2018-03-30T03:54:44.837Z,19.33
2018-03-30T03:55:44.849Z,19.52
2018-03-30T03:56:44.891Z,19.33
2018-03-30T03:57:44.872Z,19.32
2018-03-30T03:58:44.853Z,19.48
2018-03-30T03:59:44.848Z,19.35
2018-03-30T04:00:44.854Z,19.31
2018-03-30T04:01:44.930Z,19.56
2018-03-30T04:02:44.907Z,19.39
2018-03-30T04:03:44.852Z,19.36
2018-03-30T04:04:44.892Z,19.58
2018-03-30T04:05:44.860Z,19.39
2018-03-30T04:06:44.845Z,19.38
2018-03-30T04:07:44.868Z,19.63
2018-03-30T04:08:44.862Z,19.47
2018-03-30T04:09:44.870Z,19.46
2018-03-30T04:10:44.871Z,19.69
2018-03-30T04:11:44.872Z,19.51
2018-03-30T04:12:44.868Z,19.5
2018-03-30T04:13:44.862Z,19.7
2018-03-30T04:14:44.822Z,19.55
2018-03-30T04:15:44.885Z,19.55
2018-03-30T04:16:44.972Z,19.77
2018-03-30T04:17:45.038Z,19.64
2018-03-30T04:18:44.872Z,19.63
2018-03-30T04:19:44.848Z,19.84
2018-03-30T04:20:44.868Z,19.69
2018-03-30T04:21:45.008Z,19.69
2018-03-30T04:22:44.874Z,19.88
2018-03-30T04:23:44.846Z,19.76
2018-03-30T04:24:44.851Z,19.75
2018-03-30T04:25:44.854Z,19.93
2018-03-30T04:26:44.882Z,19.82
2018-03-30T04:27:44.839Z,19.81
2018-03-30T04:28:44.840Z,20
2018-03-30T04:29:44.838Z,19.87
2018-03-30T04:30:44.848Z,19.82
2018-03-30T04:31:45.001Z,20.03
2018-03-30T04:32:44.908Z,19.92
2018-03-30T04:33:44.819Z,19.9
2018-03-30T04:34:44.837Z,20.08
2018-03-30T04:35:44.838Z,19.94
2018-03-30T04:36:44.865Z,19.95
2018-03-30T04:37:44.873Z,20.12
2018-03-30T04:38:44.841Z,19.99
2018-03-30T04:39:44.830Z,19.98
2018-03-30T04:40:44.858Z,20.16
2018-03-30T04:41:44.838Z,20.01
2018-03-30T04:42:44.856Z,20
2018-03-30T04:43:44.832Z,20.18
2018-03-30T04:44:44.837Z,20.06
2018-03-30T04:45:44.834Z,20.05
2018-03-30T04:46:44.846Z,20.24
2018-03-30T04:47:44.881Z,20.09
2018-03-30T04:48:44.823Z,20.08
2018-03-30T04:49:44.824Z,20.27
2018-03-30T04:50:44.831Z,20.15
2018-03-30T04:51:44.880Z,20.13
2018-03-30T04:52:44.877Z,20.3
2018-03-30T04:53:44.853Z,20.17
2018-03-30T04:54:44.882Z,20.16
2018-03-30T04:55:44.845Z,20.34
2018-03-30T04:56:44.852Z,20.23
2018-03-30T04:57:44.882Z,20.19
2018-03-30T04:58:44.846Z,20.38
2018-03-30T04:59:44.862Z,20.24
2018-03-30T05:00:44.813Z,20.22
2018-03-30T05:01:44.865Z,20.41
2018-03-30T05:02:44.856Z,20.26
2018-03-30T05:03:44.815Z,20.26
2018-03-30T05:04:44.823Z,20.43
2018-03-30T05:05:44.826Z,20.3
2018-03-30T05:06:44.895Z,20.3
2018-03-30T05:07:44.848Z,20.47
2018-03-30T05:08:44.841Z,20.35
2018-03-30T05:09:44.880Z,20.33
2018-03-30T05:10:44.831Z,20.51
2018-03-30T05:11:44.852Z,20.35
2018-03-30T05:12:44.860Z,20.35
2018-03-30T05:13:44.825Z,20.53
2018-03-30T05:14:44.829Z,20.41
2018-03-30T05:15:44.834Z,20.4
2018-03-30T05:16:44.837Z,20.57
2018-03-30T05:17:44.823Z,20.45
2018-03-30T05:18:44.859Z,20.44
2018-03-30T05:19:44.822Z,20.62
2018-03-30T05:20:44.831Z,20.49
2018-03-30T05:21:44.893Z,20.47
2018-03-30T05:22:44.892Z,20.63
2018-03-30T05:23:44.829Z,20.5
2018-03-30T05:24:44.867Z,20.48
2018-03-30T05:25:44.819Z,20.66
2018-03-30T05:26:44.858Z,20.53
2018-03-30T05:27:44.834Z,20.52
2018-03-30T05:28:44.832Z,20.69
2018-03-30T05:29:44.819Z,20.56
2018-03-30T05:30:44.834Z,20.54
2018-03-30T05:31:44.877Z,20.72
2018-03-30T05:32:44.814Z,20.61
2018-03-30T05:33:44.935Z,20.59
2018-03-30T05:34:44.823Z,20.75
2018-03-30T05:35:44.814Z,20.63
2018-03-30T05:36:44.820Z,20.59
2018-03-30T05:37:44.816Z,20.77
2018-03-30T05:38:44.816Z,20.65
2018-03-30T05:39:45.048Z,20.64
2018-03-30T05:40:44.862Z,20.81
2018-03-30T05:41:44.813Z,20.67
2018-03-30T05:42:44.811Z,20.65
2018-03-30T05:43:44.841Z,20.81
2018-03-30T05:44:44.818Z,20.65
2018-03-30T05:45:44.815Z,20.65
2018-03-30T05:46:44.894Z,20.82
2018-03-30T05:47:44.809Z,20.7
2018-03-30T05:48:44.796Z,20.65
2018-03-30T05:49:44.823Z,20.83
2018-03-30T05:50:44.823Z,20.69
2018-03-30T05:51:44.822Z,20.66
2018-03-30T05:52:44.841Z,20.86
2018-03-30T05:53:44.815Z,20.72
2018-03-30T05:54:44.791Z,20.71
2018-03-30T05:55:45.105Z,20.87
2018-03-30T05:56:44.802Z,20.73
2018-03-30T05:57:44.856Z,20.7
2018-03-30T05:58:44.857Z,20.89
2018-03-30T05:59:44.860Z,20.74
2018-03-30T06:00:44.842Z,20.74
2018-03-30T06:01:44.819Z,20.89
2018-03-30T06:02:44.834Z,20.77
2018-03-30T06:03:44.842Z,20.73
2018-03-30T06:04:44.807Z,20.89
2018-03-30T06:05:44.855Z,20.74
2018-03-30T06:06:44.855Z,20.74
2018-03-30T06:07:44.805Z,20.93
2018-03-30T06:08:44.822Z,20.78
2018-03-30T06:09:44.805Z,20.76
2018-03-30T06:10:44.834Z,20.94
2018-03-30T06:11:44.829Z,20.79
2018-03-30T06:12:44.800Z,20.76
2018-03-30T06:13:44.826Z,20.92
2018-03-30T06:14:44.818Z,20.8
2018-03-30T06:15:44.799Z,20.77
2018-03-30T06:16:44.886Z,20.92
2018-03-30T06:17:44.918Z,20.77
2018-03-30T06:18:44.936Z,20.77
2018-03-30T06:19:44.803Z,20.94
2018-03-30T06:20:44.876Z,20.77
2018-03-30T06:21:44.854Z,20.75
2018-03-30T06:22:44.851Z,20.95
2018-03-30T06:23:44.796Z,20.77
2018-03-30T06:24:44.803Z,20.76
2018-03-30T06:25:44.805Z,20.93
2018-03-30T06:26:44.946Z,20.8
2018-03-30T06:27:44.818Z,20.77
2018-03-30T06:28:44.892Z,20.94
2018-03-30T06:29:44.814Z,20.8
2018-03-30T06:30:44.843Z,20.75
2018-03-30T06:31:44.806Z,20.95
2018-03-30T06:32:44.954Z,20.79
2018-03-30T06:33:44.784Z,20.76
2018-03-30T06:34:44.799Z,20.95
2018-03-30T06:35:44.816Z,20.8
2018-03-30T06:36:44.807Z,20.77
2018-03-30T06:37:44.829Z,20.95
2018-03-30T06:38:44.807Z,20.82
2018-03-30T06:39:44.824Z,20.79
2018-03-30T06:40:44.822Z,20.97
2018-03-30T06:41:44.803Z,20.83
2018-03-30T06:42:44.808Z,20.83
2018-03-30T06:43:44.794Z,20.98
2018-03-30T06:44:44.815Z,20.86
2018-03-30T06:45:44.827Z,20.82
2018-03-30T06:46:44.822Z,20.99
2018-03-30T06:47:45.059Z,20.85
2018-03-30T06:48:44.796Z,20.83
2018-03-30T06:49:44.788Z,21.01
2018-03-30T06:50:44.801Z,20.86
2018-03-30T06:51:44.789Z,20.86
2018-03-30T06:52:44.839Z,21.02
2018-03-30T06:53:44.814Z,20.88
2018-03-30T06:54:44.800Z,20.87
2018-03-30T06:55:44.829Z,21.03
2018-03-30T06:56:44.840Z,20.89
2018-03-30T06:57:45.203Z,20.88
2018-03-30T06:58:44.809Z,21.04
2018-03-30T06:59:44.804Z,20.91
2018-03-30T07:00:44.803Z,20.88
2018-03-30T07:01:44.792Z,21.07
2018-03-30T07:02:44.862Z,20.91
2018-03-30T07:03:44.851Z,20.91
2018-03-30T07:04:44.808Z,21.08
2018-03-30T07:05:44.801Z,20.94
2018-03-30T07:06:44.756Z,20.91
2018-03-30T07:07:44.803Z,21.08
2018-03-30T07:08:44.802Z,20.95
2018-03-30T07:09:44.776Z,20.93
2018-03-30T07:10:44.802Z,21.11
2018-03-30T07:11:44.788Z,21
2018-03-30T07:12:44.873Z,20.95
2018-03-30T07:13:44.787Z,21.13
2018-03-30T07:14:44.792Z,20.99
2018-03-30T07:15:44.800Z,20.97
2018-03-30T07:16:44.792Z,21.14
2018-03-30T07:17:44.801Z,21.01
2018-03-30T07:18:44.808Z,20.98
2018-03-30T07:19:44.784Z,21.16
2018-03-30T07:20:44.785Z,21.02
2018-03-30T07:21:44.797Z,21
2018-03-30T07:22:44.793Z,21.15
2018-03-30T07:23:44.775Z,21.03
2018-03-30T07:24:44.779Z,21.01
2018-03-30T07:25:44.840Z,21.2
2018-03-30T07:26:44.786Z,21.06
2018-03-30T07:27:44.786Z,21.02
2018-03-30T07:28:44.779Z,21.21
2018-03-30T07:29:44.794Z,21.07
2018-03-30T07:30:44.774Z,21.05
2018-03-30T07:31:44.785Z,21.23
2018-03-30T07:32:44.777Z,21.09
2018-03-30T07:33:44.805Z,21.07
2018-03-30T07:34:44.828Z,21.24
2018-03-30T07:35:44.803Z,21.12
2018-03-30T07:36:44.764Z,21.11
2018-03-30T07:37:44.784Z,21.28
2018-03-30T07:38:44.926Z,21.14
2018-03-30T07:39:44.778Z,21.13
2018-03-30T07:40:44.772Z,21.31
2018-03-30T07:41:44.790Z,21.13
2018-03-30T07:42:44.775Z,21.13
2018-03-30T07:43:44.998Z,21.3
2018-03-30T07:44:44.776Z,21.16
2018-03-30T07:45:44.763Z,21.14
2018-03-30T07:46:44.827Z,21.3
2018-03-30T07:47:45.236Z,21.18
2018-03-30T07:48:44.785Z,21.15
2018-03-30T07:49:44.809Z,21.33
2018-03-30T07:50:44.788Z,21.19
2018-03-30T07:51:44.820Z,21.18
2018-03-30T07:52:44.785Z,21.36
2018-03-30T07:53:44.762Z,21.19
2018-03-30T07:54:44.803Z,21.16
2018-03-30T07:55:44.778Z,21.33
2018-03-30T07:56:44.764Z,21.18
2018-03-30T07:57:44.810Z,21.14
2018-03-30T07:58:44.785Z,21.33
2018-03-30T07:59:44.773Z,21.19
2018-03-30T08:00:44.825Z,21.17
2018-03-30T08:01:44.763Z,21.31
2018-03-30T08:02:44.772Z,21.19
2018-03-30T08:03:44.807Z,21.18
2018-03-30T08:04:44.847Z,21.36
2018-03-30T08:05:44.776Z,21.22
2018-03-30T08:06:44.805Z,21.18
2018-03-30T08:07:44.790Z,21.35
2018-03-30T08:08:44.777Z,21.19
2018-03-30T08:09:44.818Z,21.18
2018-03-30T08:10:44.759Z,21.36
2018-03-30T08:11:44.783Z,21.22
2018-03-30T08:12:44.784Z,21.18
2018-03-30T08:13:44.791Z,21.37
2018-03-30T08:14:44.938Z,21.23
2018-03-30T08:15:44.781Z,21.19
2018-03-30T08:16:44.779Z,21.38
2018-03-30T08:17:45.160Z,21.22
2018-03-30T08:18:45.200Z,21.22
2018-03-30T08:19:45.608Z,21.39
2018-03-30T08:20:44.762Z,21.25
2018-03-30T08:21:44.889Z,21.21
2018-03-30T08:22:44.792Z,21.41
2018-03-30T08:23:44.786Z,21.24
2018-03-30T08:24:44.763Z,21.21
2018-03-30T08:25:44.773Z,21.4
2018-03-30T08:26:44.840Z,21.27
2018-03-30T08:27:44.761Z,21.25
2018-03-30T08:28:44.799Z,21.42
2018-03-30T08:29:44.761Z,21.25
2018-03-30T08:30:44.793Z,21.24
2018-03-30T08:31:44.775Z,21.42
2018-03-30T08:32:45.104Z,21.3
2018-03-30T08:33:44.777Z,21.27
2018-03-30T08:34:44.785Z,21.43
2018-03-30T08:35:44.814Z,21.29
2018-03-30T08:36:44.797Z,21.24
2018-03-30T08:37:44.765Z,21.44
2018-03-30T08:38:45.191Z,21.3
2018-03-30T08:39:45.361Z,21.29
2018-03-30T08:40:44.760Z,21.45
2018-03-30T08:41:44.806Z,21.3
2018-03-30T08:42:44.761Z,21.28
2018-03-30T08:43:44.764Z,21.45
2018-03-30T08:44:44.844Z,21.3
2018-03-30T08:45:44.813Z,21.26
2018-03-30T08:46:44.762Z,21.44
2018-03-30T08:47:44.781Z,21.31
2018-03-30T08:48:44.823Z,21.24
2018-03-30T08:49:44.917Z,21.3
2018-03-30T08:50:44.762Z,20.95
2018-03-30T08:51:44.840Z,20.78
2018-03-30T08:52:44.771Z,20.92
2018-03-30T08:53:44.775Z,20.74
2018-03-30T08:54:44.788Z,20.74
2018-03-30T08:55:44.769Z,20.92
2018-03-30T08:56:44.860Z,20.9
2018-03-30T08:57:44.778Z,20.92
2018-03-30T08:58:44.783Z,21.11
2018-03-30T08:59:44.767Z,21.01
2018-03-30T09:00:44.790Z,21.03
2018-03-30T09:01:44.751Z,21.21
2018-03-30T09:02:44.770Z,21.13
2018-03-30T09:03:44.774Z,21.14
2018-03-30T09:04:44.781Z,21.34
2018-03-30T09:05:44.837Z,21.23
2018-03-30T09:06:45.602Z,21.23
2018-03-30T09:07:44.948Z,21.41
2018-03-30T09:08:44.754Z,21.28
2018-03-30T09:09:44.891Z,21.26
2018-03-30T09:10:44.933Z,21.43
2018-03-30T09:11:44.772Z,21.34
2018-03-30T09:12:44.994Z,21.33
2018-03-30T09:13:44.789Z,21.49
2018-03-30T09:14:44.766Z,21.4
2018-03-30T09:15:44.806Z,21.38
2018-03-30T09:16:44.752Z,21.56
2018-03-30T09:17:44.800Z,21.44
2018-03-30T09:18:44.761Z,21.45
2018-03-30T09:19:44.786Z,21.6
2018-03-30T09:20:44.803Z,21.51
2018-03-30T09:21:44.840Z,21.48
2018-03-30T09:22:44.776Z,21.65
2018-03-30T09:23:44.820Z,21.54
2018-03-30T09:24:45.091Z,21.48
2018-03-30T09:25:44.898Z,21.68
2018-03-30T09:26:47.315Z,21.5
2018-03-30T09:27:44.913Z,21.52
2018-03-30T09:28:44.807Z,21.71
2018-03-30T09:29:45.232Z,21.58
2018-03-30T09:30:44.868Z,21.58
2018-03-30T09:31:45.080Z,21.76
2018-03-30T09:32:46.600Z,21.65
2018-03-30T09:33:45.021Z,21.66
2018-03-30T09:34:45.079Z,21.82
2018-03-30T09:35:45.208Z,21.7
2018-03-30T09:36:45.075Z,21.68
2018-03-30T09:37:45.138Z,21.85
2018-03-30T09:38:48.485Z,21.73
2018-03-30T09:39:45.117Z,21.71
2018-03-30T09:40:45.036Z,21.87
2018-03-30T09:41:44.938Z,21.75
2018-03-30T09:42:45.031Z,21.7
2018-03-30T09:43:45.031Z,21.88
2018-03-30T09:44:45.138Z,21.72
2018-03-30T09:45:45.232Z,21.7
2018-03-30T09:46:45.048Z,21.89
2018-03-30T09:47:46.179Z,21.74
2018-03-30T09:48:45.703Z,21.71
2018-03-30T09:49:45.657Z,21.71
2018-03-30T09:50:44.960Z,21.67
2018-03-30T09:51:45.210Z,21.72
2018-03-30T09:52:46.993Z,21.94
2018-03-30T09:53:44.921Z,21.79
2018-03-30T09:54:45.566Z,21.8
2018-03-30T09:55:44.923Z,21.96
2018-03-30T09:56:45.088Z,21.81
2018-03-30T09:57:44.868Z,21.75
2018-03-30T09:58:44.936Z,21.89
2018-03-30T09:59:44.847Z,21.78
2018-03-30T10:00:44.810Z,21.79
2018-03-30T10:01:44.756Z,21.99
2018-03-30T10:02:44.771Z,21.77
2018-03-30T10:03:44.750Z,21.71
2018-03-30T10:04:44.779Z,21.88
2018-03-30T10:05:44.730Z,21.77
2018-03-30T10:06:44.732Z,21.72
2018-03-30T10:07:44.847Z,21.93
2018-03-30T10:08:44.749Z,21.82
2018-03-30T10:09:44.720Z,21.79
2018-03-30T10:10:44.745Z,21.95
2018-03-30T10:11:45.056Z,21.77
2018-03-30T10:12:44.794Z,21.64
2018-03-30T10:13:44.751Z,21.84
2018-03-30T10:14:44.737Z,21.75
2018-03-30T10:15:44.804Z,21.71
2018-03-30T10:16:44.748Z,21.93
2018-03-30T10:17:44.760Z,21.82
2018-03-30T10:18:44.821Z,21.79
2018-03-30T10:19:44.849Z,21.97
2018-03-30T10:20:44.858Z,21.83
2018-03-30T10:21:44.813Z,21.79
2018-03-30T10:22:44.779Z,21.97
2018-03-30T10:23:44.733Z,21.82
2018-03-30T10:24:44.724Z,21.82
2018-03-30T10:25:44.798Z,21.98
2018-03-30T10:26:44.735Z,21.85
2018-03-30T10:27:44.901Z,21.81
2018-03-30T10:28:44.739Z,21.97
2018-03-30T10:29:44.803Z,21.81
2018-03-30T10:30:44.775Z,21.76
2018-03-30T10:31:44.731Z,21.95
2018-03-30T10:32:44.810Z,21.81
2018-03-30T10:33:45.040Z,21.77
2018-03-30T10:34:44.732Z,21.97
2018-03-30T10:35:44.742Z,21.86
2018-03-30T10:36:44.789Z,21.84
2018-03-30T10:37:44.806Z,22.01
2018-03-30T10:38:44.805Z,21.89
2018-03-30T10:39:44.733Z,21.83
2018-03-30T10:40:44.763Z,21.99
2018-03-30T10:41:44.732Z,21.83
2018-03-30T10:42:44.705Z,21.84
2018-03-30T10:43:44.749Z,22.01
2018-03-30T10:44:44.750Z,21.87
2018-03-30T10:45:44.710Z,21.86
2018-03-30T10:46:44.772Z,22.05
2018-03-30T10:47:44.756Z,21.91
2018-03-30T10:48:45.070Z,21.89
2018-03-30T10:49:44.759Z,22.06
2018-03-30T10:50:44.769Z,21.9
2018-03-30T10:51:44.762Z,21.88
2018-03-30T10:52:44.764Z,22.06
2018-03-30T10:53:44.711Z,21.88
2018-03-30T10:54:44.810Z,21.82
2018-03-30T10:55:44.782Z,22.04
2018-03-30T10:56:44.729Z,21.89
2018-03-30T10:57:44.752Z,21.86
2018-03-30T10:58:44.741Z,22.06
2018-03-30T10:59:44.741Z,21.89
2018-03-30T11:00:44.874Z,21.83
2018-03-30T11:01:44.713Z,22.03
2018-03-30T11:02:44.727Z,21.84
2018-03-30T11:03:44.761Z,21.83
2018-03-30T11:04:44.723Z,22.02
2018-03-30T11:05:44.840Z,21.86
2018-03-30T11:06:44.773Z,21.8
2018-03-30T11:07:44.718Z,21.97
2018-03-30T11:08:44.727Z,21.83
2018-03-30T11:09:44.798Z,21.8
2018-03-30T11:10:44.736Z,21.99
2018-03-30T11:11:44.771Z,21.81
2018-03-30T11:12:44.736Z,21.77
2018-03-30T11:13:44.729Z,21.97
2018-03-30T11:14:44.736Z,21.8
2018-03-30T11:15:44.799Z,21.76
2018-03-30T11:16:44.756Z,21.96
2018-03-30T11:17:44.710Z,21.77
2018-03-30T11:18:44.715Z,21.77
2018-03-30T11:19:44.714Z,21.83
2018-03-30T11:20:44.715Z,21.74
2018-03-30T11:21:44.744Z,21.71
2018-03-30T11:22:44.720Z,21.91
2018-03-30T11:23:44.728Z,21.77
2018-03-30T11:24:44.716Z,21.68
2018-03-30T11:25:44.726Z,21.84
2018-03-30T11:26:44.745Z,21.69
2018-03-30T11:27:44.743Z,21.67
2018-03-30T11:28:44.711Z,21.88
2018-03-30T11:29:44.710Z,21.71
2018-03-30T11:30:44.712Z,21.64
2018-03-30T11:31:44.732Z,21.84
2018-03-30T11:32:44.710Z,21.69
2018-03-30T11:33:44.714Z,21.66
2018-03-30T11:34:44.762Z,21.85
2018-03-30T11:35:44.724Z,21.68
2018-03-30T11:36:44.876Z,21.64
2018-03-30T11:37:44.774Z,21.83
2018-03-30T11:38:44.702Z,21.68
2018-03-30T11:39:44.757Z,21.67
2018-03-30T11:40:44.784Z,21.85
2018-03-30T11:41:44.740Z,21.7
2018-03-30T11:42:44.726Z,21.66
2018-03-30T11:43:44.709Z,21.81
2018-03-30T11:44:45.071Z,21.7
2018-03-30T11:45:44.728Z,21.65
2018-03-30T11:46:44.785Z,21.85
2018-03-30T11:47:44.710Z,21.69
2018-03-30T11:48:44.713Z,21.67
2018-03-30T11:49:44.717Z,21.87
2018-03-30T11:50:44.704Z,21.74
2018-03-30T11:51:44.764Z,21.71
2018-03-30T11:52:44.700Z,21.89
2018-03-30T11:53:44.708Z,21.71
2018-03-30T11:54:44.729Z,21.67
2018-03-30T11:55:44.779Z,21.84
2018-03-30T11:56:44.726Z,21.71
2018-03-30T11:57:44.717Z,21.66
2018-03-30T11:58:44.778Z,21.82
2018-03-30T11:59:44.697Z,21.71
2018-03-30T12:00:44.704Z,21.67
2018-03-30T12:01:44.725Z,21.87
2018-03-30T12:02:44.715Z,21.68
2018-03-30T12:03:44.692Z,21.67
2018-03-30T12:04:44.697Z,21.83
2018-03-30T12:05:44.766Z,21.67
2018-03-30T12:06:44.728Z,21.65
2018-03-30T12:07:44.699Z,21.82
2018-03-30T12:08:44.698Z,21.67
2018-03-30T12:09:44.691Z,21.61
2018-03-30T12:10:44.687Z,21.82
2018-03-30T12:11:44.806Z,21.65
2018-03-30T12:12:44.688Z,21.64
2018-03-30T12:13:44.689Z,21.79
2018-03-30T12:14:44.714Z,21.65
2018-03-30T12:15:44.705Z,21.6
2018-03-30T12:16:44.725Z,21.79
2018-03-30T12:17:44.729Z,21.6
2018-03-30T12:18:44.688Z,21.56
2018-03-30T12:19:44.718Z,21.77
2018-03-30T12:20:44.802Z,21.61
2018-03-30T12:21:44.827Z,21.59
2018-03-30T12:22:44.703Z,21.75
2018-03-30T12:23:44.699Z,21.59
2018-03-30T12:24:44.718Z,21.6
2018-03-30T12:25:44.694Z,21.79
2018-03-30T12:26:44.702Z,21.6
2018-03-30T12:27:44.762Z,21.56
2018-03-30T12:28:44.685Z,21.77
2018-03-30T12:29:44.690Z,21.59
2018-03-30T12:30:44.769Z,21.53
2018-03-30T12:31:44.701Z,21.66
2018-03-30T12:32:44.708Z,21.53
2018-03-30T12:33:44.721Z,21.54
2018-03-30T12:34:44.696Z,21.76
2018-03-30T12:35:44.705Z,21.65
2018-03-30T12:36:44.717Z,21.64
2018-03-30T12:37:44.730Z,21.82
2018-03-30T12:38:44.685Z,21.68
2018-03-30T12:39:44.713Z,21.67
2018-03-30T12:40:44.700Z,21.85
2018-03-30T12:41:44.723Z,21.73
2018-03-30T12:42:44.750Z,21.68
2018-03-30T12:43:44.707Z,21.89
2018-03-30T12:44:44.717Z,21.76
2018-03-30T12:45:44.703Z,21.76
2018-03-30T12:46:44.992Z,21.94
2018-03-30T12:47:44.725Z,21.77
2018-03-30T12:48:44.751Z,21.71
2018-03-30T12:49:44.695Z,21.89
2018-03-30T12:50:44.676Z,21.75
2018-03-30T12:51:44.682Z,21.73
2018-03-30T12:52:44.694Z,21.93
2018-03-30T12:53:44.718Z,21.78
2018-03-30T12:54:44.782Z,21.75
2018-03-30T12:55:44.693Z,21.95